sensor_id;sensor_type;location;lat;lon;timestamp;pressure;altitude;pressure_sealevel;temperature;humidity
21096;BME280;10706;49.036;12.112;2023-08-31T00:00:49;97084.19;;;15.17;91.60
21096;BME280;10706;49.036;12.112;2023-08-31T00:03:17;97091.91;;;15.24;90.99
21096;BME280;10706;49.036;12.112;2023-08-31T00:05:43;97089.53;;;15.22;90.87
21096;BME280;10706;49.036;12.112;2023-08-31T00:08:10;97101.63;;;15.20;90.85
21096;BME280;10706;49.036;12.112;2023-08-31T00:10:37;97099.84;;;15.10;90.62
21096;BME280;10706;49.036;12.112;2023-08-31T00:13:03;97101.88;;;15.23;90.77
21096;BME280;10706;49.036;12.112;2023-08-31T00:15:30;97100.50;;;15.26;90.14
21096;BME280;10706;49.036;12.112;2023-08-31T00:17:58;97106.50;;;15.18;89.55
21096;BME280;10706;49.036;12.112;2023-08-31T00:20:24;97115.38;;;15.18;90.67
21096;BME280;10706;49.036;12.112;2023-08-31T00:22:50;97108.66;;;15.15;89.61
21096;BME280;10706;49.036;12.112;2023-08-31T00:25:16;97101.22;;;15.02;89.20
21096;BME280;10706;49.036;12.112;2023-08-31T00:27:42;97094.38;;;14.81;91.25
21096;BME280;10706;49.036;12.112;2023-08-31T00:30:10;97085.75;;;14.84;91.04
21096;BME280;10706;49.036;12.112;2023-08-31T00:32:37;97085.50;;;14.80;92.00
21096;BME280;10706;49.036;12.112;2023-08-31T00:35:05;97081.44;;;14.83;91.73
21096;BME280;10706;49.036;12.112;2023-08-31T00:37:31;97075.28;;;14.82;91.58
21096;BME280;10706;49.036;12.112;2023-08-31T00:39:57;97074.84;;;14.65;91.55
21096;BME280;10706;49.036;12.112;2023-08-31T00:42:22;97073.47;;;14.72;92.01
21096;BME280;10706;49.036;12.112;2023-08-31T00:44:50;97069.47;;;14.65;92.84
21096;BME280;10706;49.036;12.112;2023-08-31T00:47:16;97067.06;;;14.68;92.17
21096;BME280;10706;49.036;12.112;2023-08-31T00:49:42;97077.28;;;14.66;92.64
21096;BME280;10706;49.036;12.112;2023-08-31T00:52:08;97066.78;;;14.70;92.05
21096;BME280;10706;49.036;12.112;2023-08-31T00:54:35;97081.53;;;14.72;92.55
21096;BME280;10706;49.036;12.112;2023-08-31T00:57:00;97074.53;;;14.71;92.83
21096;BME280;10706;49.036;12.112;2023-08-31T00:59:26;97076.69;;;14.74;92.72
21096;BME280;10706;49.036;12.112;2023-08-31T01:08:12;97084.44;;;14.81;92.23
21096;BME280;10706;49.036;12.112;2023-08-31T01:11:24;97090.09;;;14.80;92.61
21096;BME280;10706;49.036;12.112;2023-08-31T01:14:12;97095.19;;;14.81;92.25
21096;BME280;10706;49.036;12.112;2023-08-31T01:16:42;97092.25;;;14.77;92.97
21096;BME280;10706;49.036;12.112;2023-08-31T01:22:13;97108.03;;;14.89;92.30
21096;BME280;10706;49.036;12.112;2023-08-31T01:24:41;97110.75;;;14.84;92.40
21096;BME280;10706;49.036;12.112;2023-08-31T01:27:06;97115.63;;;14.77;93.39
21096;BME280;10706;49.036;12.112;2023-08-31T01:29:33;97113.00;;;14.67;92.88
21096;BME280;10706;49.036;12.112;2023-08-31T01:31:59;97115.22;;;14.44;93.69
21096;BME280;10706;49.036;12.112;2023-08-31T01:34:24;97116.63;;;14.26;95.63
21096;BME280;10706;49.036;12.112;2023-08-31T01:36:58;97120.94;;;14.22;95.20
21096;BME280;10706;49.036;12.112;2023-08-31T01:39:51;97112.63;;;14.29;95.23
21096;BME280;10706;49.036;12.112;2023-08-31T01:42:17;97116.88;;;14.35;95.53
21096;BME280;10706;49.036;12.112;2023-08-31T01:44:45;97117.19;;;14.23;96.03
21096;BME280;10706;49.036;12.112;2023-08-31T01:47:15;97117.13;;;14.38;95.29
21096;BME280;10706;49.036;12.112;2023-08-31T01:49:41;97111.97;;;14.52;94.40
21096;BME280;10706;49.036;12.112;2023-08-31T01:52:09;97108.09;;;14.14;94.46
21096;BME280;10706;49.036;12.112;2023-08-31T01:54:35;97126.91;;;14.09;95.17
21096;BME280;10706;49.036;12.112;2023-08-31T01:57:03;97132.25;;;14.19;95.25
21096;BME280;10706;49.036;12.112;2023-08-31T01:59:29;97124.69;;;14.31;95.36
21096;BME280;10706;49.036;12.112;2023-08-31T02:01:55;97129.56;;;14.14;95.29
21096;BME280;10706;49.036;12.112;2023-08-31T02:04:21;97127.47;;;13.95;94.98
21096;BME280;10706;49.036;12.112;2023-08-31T02:06:46;97130.72;;;13.77;95.94
21096;BME280;10706;49.036;12.112;2023-08-31T02:09:13;97130.44;;;13.78;96.07
21096;BME280;10706;49.036;12.112;2023-08-31T02:11:40;97135.00;;;13.83;96.12
21096;BME280;10706;49.036;12.112;2023-08-31T02:14:06;97140.91;;;13.80;96.33
21096;BME280;10706;49.036;12.112;2023-08-31T02:16:33;97136.09;;;13.67;96.50
21096;BME280;10706;49.036;12.112;2023-08-31T02:18:59;97133.97;;;13.69;96.78
21096;BME280;10706;49.036;12.112;2023-08-31T02:21:25;97133.41;;;13.51;97.66
21096;BME280;10706;49.036;12.112;2023-08-31T02:23:51;97133.69;;;13.60;97.10
21096;BME280;10706;49.036;12.112;2023-08-31T02:26:17;97120.50;;;13.84;96.42
21096;BME280;10706;49.036;12.112;2023-08-31T02:28:42;97121.63;;;13.57;96.32
21096;BME280;10706;49.036;12.112;2023-08-31T02:31:10;97132.34;;;13.68;96.83
21096;BME280;10706;49.036;12.112;2023-08-31T02:33:37;97135.03;;;13.78;96.31
21096;BME280;10706;49.036;12.112;2023-08-31T02:36:03;97129.13;;;13.71;97.97
21096;BME280;10706;49.036;12.112;2023-08-31T02:38:29;97129.13;;;13.66;97.27
21096;BME280;10706;49.036;12.112;2023-08-31T02:40:54;97129.91;;;13.76;97.39
21096;BME280;10706;49.036;12.112;2023-08-31T02:43:20;97131.81;;;13.71;98.32
21096;BME280;10706;49.036;12.112;2023-08-31T02:45:46;97125.91;;;13.64;98.32
21096;BME280;10706;49.036;12.112;2023-08-31T02:48:12;97129.94;;;13.61;97.73
21096;BME280;10706;49.036;12.112;2023-08-31T02:50:38;97130.19;;;13.54;98.48
21096;BME280;10706;49.036;12.112;2023-08-31T02:53:05;97130.47;;;13.63;98.63
21096;BME280;10706;49.036;12.112;2023-08-31T02:55:33;97136.09;;;13.56;98.16
21096;BME280;10706;49.036;12.112;2023-08-31T02:58:00;97127.50;;;13.80;98.03
21096;BME280;10706;49.036;12.112;2023-08-31T03:00:25;97114.63;;;13.56;98.73
21096;BME280;10706;49.036;12.112;2023-08-31T03:02:51;97107.63;;;13.81;97.27
21096;BME280;10706;49.036;12.112;2023-08-31T03:05:18;97108.09;;;14.04;96.96
21096;BME280;10706;49.036;12.112;2023-08-31T03:07:44;97104.31;;;14.15;96.89
21096;BME280;10706;49.036;12.112;2023-08-31T03:10:10;97117.53;;;13.96;96.61
21096;BME280;10706;49.036;12.112;2023-08-31T03:12:36;97138.72;;;14.03;97.16
21096;BME280;10706;49.036;12.112;2023-08-31T03:15:02;97150.25;;;14.03;97.63
21096;BME280;10706;49.036;12.112;2023-08-31T03:17:28;97152.16;;;14.03;97.67
21096;BME280;10706;49.036;12.112;2023-08-31T03:19:54;97155.66;;;13.93;97.61
21096;BME280;10706;49.036;12.112;2023-08-31T03:22:19;97156.47;;;13.68;98.63
21096;BME280;10706;49.036;12.112;2023-08-31T03:24:45;97160.22;;;13.51;99.87
21096;BME280;10706;49.036;12.112;2023-08-31T03:27:11;97166.41;;;13.62;99.56
21096;BME280;10706;49.036;12.112;2023-08-31T03:29:37;97165.59;;;13.56;98.83
21096;BME280;10706;49.036;12.112;2023-08-31T03:32:03;97163.47;;;13.43;100.00
21096;BME280;10706;49.036;12.112;2023-08-31T03:34:30;97177.41;;;13.45;100.00
21096;BME280;10706;49.036;12.112;2023-08-31T03:36:56;97175.81;;;13.59;100.00
21096;BME280;10706;49.036;12.112;2023-08-31T03:39:24;97168.81;;;13.58;100.00
21096;BME280;10706;49.036;12.112;2023-08-31T03:41:49;97168.81;;;13.79;99.17
21096;BME280;10706;49.036;12.112;2023-08-31T03:44:15;97172.06;;;13.76;98.63
21096;BME280;10706;49.036;12.112;2023-08-31T03:46:42;97174.72;;;13.81;98.37
21096;BME280;10706;49.036;12.112;2023-08-31T03:49:08;97184.66;;;13.70;99.11
21096;BME280;10706;49.036;12.112;2023-08-31T03:51:33;97183.56;;;13.87;98.18
21096;BME280;10706;49.036;12.112;2023-08-31T03:53:59;97186.28;;;13.61;98.37
21096;BME280;10706;49.036;12.112;2023-08-31T03:56:25;97186.28;;;13.61;98.14
21096;BME280;10706;49.036;12.112;2023-08-31T03:58:51;97185.47;;;13.71;98.79
21096;BME280;10706;49.036;12.112;2023-08-31T04:01:16;97186.00;;;13.78;98.36
21096;BME280;10706;49.036;12.112;2023-08-31T04:03:43;97190.53;;;13.83;97.50
21096;BME280;10706;49.036;12.112;2023-08-31T04:06:09;97195.13;;;13.82;97.59
21096;BME280;10706;49.036;12.112;2023-08-31T04:08:34;97196.19;;;13.76;97.21
21096;BME280;10706;49.036;12.112;2023-08-31T04:11:00;97190.28;;;13.64;98.25
21096;BME280;10706;49.036;12.112;2023-08-31T04:13:26;97193.78;;;13.74;98.00
21096;BME280;10706;49.036;12.112;2023-08-31T04:15:52;97200.19;;;13.53;98.28
21096;BME280;10706;49.036;12.112;2023-08-31T04:18:19;97199.66;;;13.66;97.44
21096;BME280;10706;49.036;12.112;2023-08-31T04:20:54;97212.31;;;13.76;97.72
21096;BME280;10706;49.036;12.112;2023-08-31T04:23:20;97211.75;;;13.84;96.54
21096;BME280;10706;49.036;12.112;2023-08-31T04:25:47;97215.50;;;13.88;96.35
21096;BME280;10706;49.036;12.112;2023-08-31T04:28:13;97223.00;;;14.02;95.94
21096;BME280;10706;49.036;12.112;2023-08-31T04:30:40;97228.91;;;14.04;95.86
21096;BME280;10706;49.036;12.112;2023-08-31T04:33:07;97240.19;;;14.16;95.41
21096;BME280;10706;49.036;12.112;2023-08-31T04:35:33;97242.34;;;13.88;96.88
21096;BME280;10706;49.036;12.112;2023-08-31T04:37:59;97252.81;;;13.79;97.86
21096;BME280;10706;49.036;12.112;2023-08-31T04:40:26;97247.44;;;13.69;98.02
21096;BME280;10706;49.036;12.112;2023-08-31T04:42:52;97243.41;;;13.97;97.67
21096;BME280;10706;49.036;12.112;2023-08-31T04:45:18;97247.16;;;13.81;96.64
21096;BME280;10706;49.036;12.112;2023-08-31T04:47:44;97243.94;;;13.58;97.12
21096;BME280;10706;49.036;12.112;2023-08-31T04:50:10;97246.63;;;13.69;97.09
21096;BME280;10706;49.036;12.112;2023-08-31T04:52:35;97246.91;;;13.67;96.70
21096;BME280;10706;49.036;12.112;2023-08-31T04:55:02;97251.44;;;13.51;97.03
21096;BME280;10706;49.036;12.112;2023-08-31T04:57:29;97250.91;;;13.54;97.23
21096;BME280;10706;49.036;12.112;2023-08-31T04:59:55;97252.53;;;13.55;96.46
21096;BME280;10706;49.036;12.112;2023-08-31T05:02:20;97258.72;;;13.61;96.70
21096;BME280;10706;49.036;12.112;2023-08-31T05:04:46;97249.56;;;13.57;96.82
21096;BME280;10706;49.036;12.112;2023-08-31T05:07:12;97256.28;;;13.75;96.51
21096;BME280;10706;49.036;12.112;2023-08-31T05:09:38;97256.81;;;13.61;96.23
21096;BME280;10706;49.036;12.112;2023-08-31T05:12:04;97273.44;;;13.64;97.16
21096;BME280;10706;49.036;12.112;2023-08-31T05:14:30;97273.47;;;13.79;95.94
21096;BME280;10706;49.036;12.112;2023-08-31T05:16:56;97278.59;;;13.91;95.76
21096;BME280;10706;49.036;12.112;2023-08-31T05:19:22;97281.25;;;13.65;96.65
21096;BME280;10706;49.036;12.112;2023-08-31T05:21:47;97279.38;;;13.91;95.87
21096;BME280;10706;49.036;12.112;2023-08-31T05:24:13;97290.63;;;13.83;96.04
21096;BME280;10706;49.036;12.112;2023-08-31T05:26:39;97287.16;;;13.67;96.84
21096;BME280;10706;49.036;12.112;2023-08-31T05:29:05;97284.19;;;13.74;95.89
21096;BME280;10706;49.036;12.112;2023-08-31T05:31:31;97290.59;;;13.47;97.68
21096;BME280;10706;49.036;12.112;2023-08-31T05:33:57;97293.56;;;13.66;96.53
21096;BME280;10706;49.036;12.112;2023-08-31T05:36:23;97302.38;;;13.51;96.53
21096;BME280;10706;49.036;12.112;2023-08-31T05:38:51;97300.81;;;13.66;95.96
21096;BME280;10706;49.036;12.112;2023-08-31T05:41:17;97310.78;;;13.80;96.33
21096;BME280;10706;49.036;12.112;2023-08-31T05:43:43;97312.38;;;13.76;95.27
21096;BME280;10706;49.036;12.112;2023-08-31T05:46:09;97316.41;;;13.84;95.96
21096;BME280;10706;49.036;12.112;2023-08-31T05:48:35;97318.31;;;13.94;95.07
21096;BME280;10706;49.036;12.112;2023-08-31T05:51:02;97320.72;;;14.31;93.55
21096;BME280;10706;49.036;12.112;2023-08-31T05:53:30;97336.84;;;14.11;93.62
21096;BME280;10706;49.036;12.112;2023-08-31T05:55:56;97331.72;;;14.30;93.40
21096;BME280;10706;49.036;12.112;2023-08-31T05:58:38;97330.94;;;14.55;91.73
21096;BME280;10706;49.036;12.112;2023-08-31T06:01:04;97335.19;;;14.82;91.78
21096;BME280;10706;49.036;12.112;2023-08-31T06:03:31;97327.41;;;14.54;88.10
21096;BME280;10706;49.036;12.112;2023-08-31T06:05:58;97333.59;;;14.75;88.22
21096;BME280;10706;49.036;12.112;2023-08-31T06:08:24;97328.78;;;14.72;88.53
21096;BME280;10706;49.036;12.112;2023-08-31T06:10:51;97325.03;;;14.63;88.13
21096;BME280;10706;49.036;12.112;2023-08-31T06:13:17;97327.19;;;14.61;89.22
21096;BME280;10706;49.036;12.112;2023-08-31T06:15:42;97322.88;;;14.55;89.06
21096;BME280;10706;49.036;12.112;2023-08-31T06:18:10;97335.22;;;14.46;87.94
21096;BME280;10706;49.036;12.112;2023-08-31T06:20:36;97339.53;;;14.31;88.04
21096;BME280;10706;49.036;12.112;2023-08-31T06:23:02;97356.19;;;14.44;89.41
21096;BME280;10706;49.036;12.112;2023-08-31T06:25:28;97353.22;;;14.81;87.18
21096;BME280;10706;49.036;12.112;2023-08-31T06:27:54;97354.56;;;14.63;87.55
21096;BME280;10706;49.036;12.112;2023-08-31T06:30:20;97358.31;;;14.77;87.08
21096;BME280;10706;49.036;12.112;2023-08-31T06:32:47;97370.69;;;14.78;86.18
21096;BME280;10706;49.036;12.112;2023-08-31T06:35:14;97365.88;;;14.75;84.82
21096;BME280;10706;49.036;12.112;2023-08-31T06:37:41;97368.28;;;14.62;85.22
21096;BME280;10706;49.036;12.112;2023-08-31T06:40:09;97369.81;;;15.09;84.34
21096;BME280;10706;49.036;12.112;2023-08-31T06:42:38;97378.09;;;15.28;84.58
21096;BME280;10706;49.036;12.112;2023-08-31T06:45:06;97372.66;;;15.43;81.67
21096;BME280;10706;49.036;12.112;2023-08-31T06:47:33;97372.59;;;15.59;81.40
21096;BME280;10706;49.036;12.112;2023-08-31T06:49:59;97389.66;;;15.23;83.29
21096;BME280;10706;49.036;12.112;2023-08-31T06:52:26;97381.72;;;15.58;81.45
21096;BME280;10706;49.036;12.112;2023-08-31T06:54:52;97374.78;;;15.46;82.69
21096;BME280;10706;49.036;12.112;2023-08-31T06:57:26;97393.50;;;15.72;80.64
21096;BME280;10706;49.036;12.112;2023-08-31T06:59:52;97373.22;;;15.35;78.52
21096;BME280;10706;49.036;12.112;2023-08-31T07:02:19;97379.97;;;15.27;79.74
21096;BME280;10706;49.036;12.112;2023-08-31T07:04:45;97390.47;;;15.24;79.75
21096;BME280;10706;49.036;12.112;2023-08-31T07:07:11;97378.84;;;15.39;78.29
21096;BME280;10706;49.036;12.112;2023-08-31T07:09:41;97380.69;;;15.53;78.34
21096;BME280;10706;49.036;12.112;2023-08-31T07:12:07;97385.78;;;15.60;78.23
21096;BME280;10706;49.036;12.112;2023-08-31T07:14:33;97380.81;;;15.88;77.27
21096;BME280;10706;49.036;12.112;2023-08-31T07:16:59;97376.69;;;16.01;75.98
21096;BME280;10706;49.036;12.112;2023-08-31T07:19:25;97379.00;;;15.73;75.61
21096;BME280;10706;49.036;12.112;2023-08-31T07:21:52;97376.09;;;15.54;75.51
21096;BME280;10706;49.036;12.112;2023-08-31T07:24:20;97378.69;;;15.80;75.16
21096;BME280;10706;49.036;12.112;2023-08-31T07:26:47;97377.47;;;15.46;76.05
21096;BME280;10706;49.036;12.112;2023-08-31T07:29:13;97366.97;;;16.05;75.62
21096;BME280;10706;49.036;12.112;2023-08-31T07:31:38;97361.88;;;16.38;74.39
21096;BME280;10706;49.036;12.112;2023-08-31T07:34:05;97377.19;;;16.03;74.23
21096;BME280;10706;49.036;12.112;2023-08-31T07:36:30;97397.19;;;15.91;74.73
21096;BME280;10706;49.036;12.112;2023-08-31T07:38:56;97394.84;;;16.24;73.60
21096;BME280;10706;49.036;12.112;2023-08-31T07:41:22;97405.13;;;16.17;73.16
21096;BME280;10706;49.036;12.112;2023-08-31T07:43:48;97407.31;;;16.15;74.76
21096;BME280;10706;49.036;12.112;2023-08-31T07:46:15;97410.47;;;16.27;74.28
21096;BME280;10706;49.036;12.112;2023-08-31T07:48:42;97425.91;;;16.51;73.11
21096;BME280;10706;49.036;12.112;2023-08-31T07:51:08;97420.50;;;16.17;73.41
21096;BME280;10706;49.036;12.112;2023-08-31T07:53:33;97423.03;;;15.98;73.07
21096;BME280;10706;49.036;12.112;2023-08-31T07:55:59;97431.88;;;16.48;71.57
21096;BME280;10706;49.036;12.112;2023-08-31T07:58:25;97431.31;;;16.46;71.31
21096;BME280;10706;49.036;12.112;2023-08-31T08:00:57;97431.81;;;16.13;72.33
21096;BME280;10706;49.036;12.112;2023-08-31T08:03:23;97429.75;;;16.40;72.98
21096;BME280;10706;49.036;12.112;2023-08-31T08:05:49;97424.72;;;16.33;73.09
21096;BME280;10706;49.036;12.112;2023-08-31T08:08:15;97422.44;;;16.80;70.97
21096;BME280;10706;49.036;12.112;2023-08-31T08:10:41;97428.41;;;16.77;69.20
21096;BME280;10706;49.036;12.112;2023-08-31T08:13:09;97430.81;;;17.37;71.36
21096;BME280;10706;49.036;12.112;2023-08-31T08:15:34;97434.56;;;17.65;70.34
21096;BME280;10706;49.036;12.112;2023-08-31T08:18:00;97446.75;;;18.05;67.68
21096;BME280;10706;49.036;12.112;2023-08-31T08:20:27;97445.16;;;17.80;67.26
21096;BME280;10706;49.036;12.112;2023-08-31T08:22:56;97451.25;;;17.19;67.85
21096;BME280;10706;49.036;12.112;2023-08-31T08:25:23;97445.38;;;16.77;70.26
21096;BME280;10706;49.036;12.112;2023-08-31T08:27:50;97450.25;;;17.09;69.96
21096;BME280;10706;49.036;12.112;2023-08-31T08:30:15;97448.72;;;17.27;69.79
21096;BME280;10706;49.036;12.112;2023-08-31T08:32:42;97441.44;;;17.28;66.86
21096;BME280;10706;49.036;12.112;2023-08-31T08:35:08;97442.44;;;17.61;65.85
21096;BME280;10706;49.036;12.112;2023-08-31T08:37:34;97440.69;;;17.71;65.57
21096;BME280;10706;49.036;12.112;2023-08-31T08:40:01;97441.44;;;17.76;65.00
21096;BME280;10706;49.036;12.112;2023-08-31T08:42:30;97438.56;;;17.92;65.09
21096;BME280;10706;49.036;12.112;2023-08-31T08:45:01;97435.97;;;18.43;63.45
21096;BME280;10706;49.036;12.112;2023-08-31T08:47:29;97436.25;;;18.42;60.95
21096;BME280;10706;49.036;12.112;2023-08-31T08:49:57;97441.47;;;18.71;59.67
21096;BME280;10706;49.036;12.112;2023-08-31T08:52:23;97432.31;;;19.19;60.36
21096;BME280;10706;49.036;12.112;2023-08-31T08:54:49;97445.00;;;19.04;60.35
21096;BME280;10706;49.036;12.112;2023-08-31T08:57:16;97439.28;;;18.92;60.54
21096;BME280;10706;49.036;12.112;2023-08-31T08:59:42;97439.78;;;18.94;58.18
21096;BME280;10706;49.036;12.112;2023-08-31T09:02:10;97449.91;;;18.70;58.70
21096;BME280;10706;49.036;12.112;2023-08-31T09:04:37;97450.03;;;18.59;59.67
21096;BME280;10706;49.036;12.112;2023-08-31T09:07:03;97455.47;;;18.21;57.67
21096;BME280;10706;49.036;12.112;2023-08-31T09:09:28;97462.03;;;18.15;54.97
21096;BME280;10706;49.036;12.112;2023-08-31T09:11:55;97460.28;;;18.62;53.96
21096;BME280;10706;49.036;12.112;2023-08-31T09:14:23;97469.78;;;18.41;55.19
21096;BME280;10706;49.036;12.112;2023-08-31T09:16:51;97471.22;;;18.14;55.00
21096;BME280;10706;49.036;12.112;2023-08-31T09:19:24;97470.56;;;18.03;54.23
21096;BME280;10706;49.036;12.112;2023-08-31T09:21:56;97473.56;;;18.02;55.37
21096;BME280;10706;49.036;12.112;2023-08-31T09:24:23;97470.94;;;18.35;55.70
21096;BME280;10706;49.036;12.112;2023-08-31T09:26:59;97473.00;;;18.43;53.89
21096;BME280;10706;49.036;12.112;2023-08-31T09:29:25;97479.25;;;18.95;53.53
21096;BME280;10706;49.036;12.112;2023-08-31T09:31:50;97479.72;;;19.16;51.31
21096;BME280;10706;49.036;12.112;2023-08-31T09:34:17;97480.81;;;18.82;52.25
21096;BME280;10706;49.036;12.112;2023-08-31T09:36:43;97483.72;;;18.86;53.35
21096;BME280;10706;49.036;12.112;2023-08-31T09:39:09;97485.47;;;18.58;53.78
21096;BME280;10706;49.036;12.112;2023-08-31T09:41:55;97479.22;;;18.81;53.06
21096;BME280;10706;49.036;12.112;2023-08-31T09:44:21;97485.66;;;19.32;53.09
21096;BME280;10706;49.036;12.112;2023-08-31T09:46:47;97482.22;;;19.13;52.04
21096;BME280;10706;49.036;12.112;2023-08-31T09:49:16;97502.44;;;19.01;52.77
21096;BME280;10706;49.036;12.112;2023-08-31T09:51:46;97490.81;;;18.06;54.09
21096;BME280;10706;49.036;12.112;2023-08-31T09:54:17;97486.47;;;18.05;54.59
21096;BME280;10706;49.036;12.112;2023-08-31T09:56:46;97485.41;;;18.63;55.23
21096;BME280;10706;49.036;12.112;2023-08-31T09:59:14;97490.66;;;17.68;54.65
21096;BME280;10706;49.036;12.112;2023-08-31T10:01:44;97492.84;;;18.14;56.01
21096;BME280;10706;49.036;12.112;2023-08-31T10:04:12;97496.84;;;18.17;55.21
21096;BME280;10706;49.036;12.112;2023-08-31T10:06:42;97487.84;;;18.45;56.89
21096;BME280;10706;49.036;12.112;2023-08-31T10:09:09;97489.81;;;18.21;54.44
21096;BME280;10706;49.036;12.112;2023-08-31T10:11:36;97484.97;;;18.18;57.06
21096;BME280;10706;49.036;12.112;2023-08-31T10:14:04;97490.03;;;18.24;57.53
21096;BME280;10706;49.036;12.112;2023-08-31T10:16:30;97480.63;;;17.98;55.66
21096;BME280;10706;49.036;12.112;2023-08-31T10:18:56;97492.41;;;17.59;55.58
21096;BME280;10706;49.036;12.112;2023-08-31T10:21:23;97487.06;;;17.54;55.12
21096;BME280;10706;49.036;12.112;2023-08-31T10:23:49;97486.63;;;17.95;53.55
21096;BME280;10706;49.036;12.112;2023-08-31T10:26:31;97487.00;;;17.83;53.02
21096;BME280;10706;49.036;12.112;2023-08-31T10:28:59;97480.44;;;18.13;53.76
21096;BME280;10706;49.036;12.112;2023-08-31T10:31:30;97490.78;;;17.87;55.27
21096;BME280;10706;49.036;12.112;2023-08-31T10:36:44;97487.56;;;17.85;55.68
21096;BME280;10706;49.036;12.112;2023-08-31T10:39:18;97490.00;;;17.81;56.11
21096;BME280;10706;49.036;12.112;2023-08-31T10:41:57;97484.53;;;18.11;55.37
21096;BME280;10706;49.036;12.112;2023-08-31T10:44:27;97482.72;;;18.25;54.32
21096;BME280;10706;49.036;12.112;2023-08-31T10:46:56;97482.25;;;17.99;55.68
21096;BME280;10706;49.036;12.112;2023-08-31T10:49:25;97490.38;;;18.56;55.51
21096;BME280;10706;49.036;12.112;2023-08-31T10:52:16;97478.03;;;18.31;58.14
21096;BME280;10706;49.036;12.112;2023-08-31T10:54:46;97476.03;;;18.93;56.93
21096;BME280;10706;49.036;12.112;2023-08-31T10:57:13;97480.06;;;18.96;55.82
21096;BME280;10706;49.036;12.112;2023-08-31T10:59:52;97483.06;;;18.94;53.94
21096;BME280;10706;49.036;12.112;2023-08-31T11:02:42;97474.59;;;18.63;55.14
21096;BME280;10706;49.036;12.112;2023-08-31T11:05:13;97483.50;;;18.63;55.14
21096;BME280;10706;49.036;12.112;2023-08-31T11:07:47;97484.22;;;18.88;54.92
21096;BME280;10706;49.036;12.112;2023-08-31T11:10:16;97487.94;;;19.25;52.03
21096;BME280;10706;49.036;12.112;2023-08-31T11:12:54;97489.78;;;19.30;52.57
21096;BME280;10706;49.036;12.112;2023-08-31T11:15:27;97481.09;;;18.24;54.53
21096;BME280;10706;49.036;12.112;2023-08-31T11:17:54;97480.06;;;18.20;53.86
21096;BME280;10706;49.036;12.112;2023-08-31T11:20:22;97484.97;;;18.37;54.83
21096;BME280;10706;49.036;12.112;2023-08-31T11:22:50;97479.31;;;19.09;53.17
21096;BME280;10706;49.036;12.112;2023-08-31T11:25:19;97483.06;;;18.75;53.91
21096;BME280;10706;49.036;12.112;2023-08-31T11:28:03;97488.00;;;17.92;55.36
21096;BME280;10706;49.036;12.112;2023-08-31T11:30:32;97484.53;;;18.68;56.97
21096;BME280;10706;49.036;12.112;2023-08-31T11:33:06;97483.66;;;18.91;52.33
21096;BME280;10706;49.036;12.112;2023-08-31T11:35:37;97476.03;;;19.54;53.21
21096;BME280;10706;49.036;12.112;2023-08-31T11:38:03;97477.38;;;19.56;51.03
21096;BME280;10706;49.036;12.112;2023-08-31T11:40:30;97475.47;;;19.71;51.14
21096;BME280;10706;49.036;12.112;2023-08-31T11:42:58;97477.16;;;18.73;54.42
21096;BME280;10706;49.036;12.112;2023-08-31T11:45:28;97476.34;;;18.73;54.73
21096;BME280;10706;49.036;12.112;2023-08-31T11:47:54;97471.91;;;19.15;54.59
21096;BME280;10706;49.036;12.112;2023-08-31T11:50:21;97476.75;;;19.46;54.31
21096;BME280;10706;49.036;12.112;2023-08-31T11:52:47;97479.56;;;19.54;52.91
21096;BME280;10706;49.036;12.112;2023-08-31T11:55:16;97474.25;;;19.49;51.58
21096;BME280;10706;49.036;12.112;2023-08-31T11:57:54;97467.03;;;20.00;50.82
21096;BME280;10706;49.036;12.112;2023-08-31T12:00:23;97469.84;;;20.45;49.84
21096;BME280;10706;49.036;12.112;2023-08-31T12:03:01;97479.63;;;19.82;50.57
21096;BME280;10706;49.036;12.112;2023-08-31T12:05:48;97470.66;;;20.46;51.45
21096;BME280;10706;49.036;12.112;2023-08-31T12:08:25;97465.72;;;20.84;49.80
21096;BME280;10706;49.036;12.112;2023-08-31T12:10:51;97473.38;;;20.82;50.01
21096;BME280;10706;49.036;12.112;2023-08-31T12:13:17;97466.09;;;20.69;49.15
21096;BME280;10706;49.036;12.112;2023-08-31T12:15:43;97479.50;;;20.01;49.23
21096;BME280;10706;49.036;12.112;2023-08-31T12:18:13;97474.59;;;19.75;48.38
21096;BME280;10706;49.036;12.112;2023-08-31T12:20:50;97484.41;;;20.13;48.22
21096;BME280;10706;49.036;12.112;2023-08-31T12:23:19;97479.81;;;20.36;45.77
21096;BME280;10706;49.036;12.112;2023-08-31T12:25:48;97475.88;;;19.64;46.06
21096;BME280;10706;49.036;12.112;2023-08-31T12:28:15;97478.97;;;19.57;48.55
21096;BME280;10706;49.036;12.112;2023-08-31T12:30:45;97480.19;;;19.93;49.70
21096;BME280;10706;49.036;12.112;2023-08-31T12:33:11;97467.19;;;20.68;45.18
21096;BME280;10706;49.036;12.112;2023-08-31T12:35:37;97469.44;;;20.52;44.89
21096;BME280;10706;49.036;12.112;2023-08-31T12:38:04;97473.66;;;21.03;44.06
21096;BME280;10706;49.036;12.112;2023-08-31T12:40:29;97468.81;;;21.45;42.78
21096;BME280;10706;49.036;12.112;2023-08-31T12:42:55;97475.25;;;21.58;42.77
21096;BME280;10706;49.036;12.112;2023-08-31T12:45:21;97466.38;;;21.75;42.44
21096;BME280;10706;49.036;12.112;2023-08-31T12:47:47;97465.34;;;22.20;41.80
21096;BME280;10706;49.036;12.112;2023-08-31T12:50:13;97463.25;;;22.17;40.17
21096;BME280;10706;49.036;12.112;2023-08-31T12:52:39;97464.25;;;23.17;39.44
21096;BME280;10706;49.036;12.112;2023-08-31T12:55:10;97464.72;;;22.14;40.77
21096;BME280;10706;49.036;12.112;2023-08-31T12:57:36;97471.59;;;22.11;40.67
21096;BME280;10706;49.036;12.112;2023-08-31T13:00:02;97468.25;;;21.66;41.07
21096;BME280;10706;49.036;12.112;2023-08-31T13:02:31;97473.25;;;21.10;38.87
21096;BME280;10706;49.036;12.112;2023-08-31T13:04:56;97465.53;;;22.23;37.14